sensor_id;sensor_type;location;lat;lon;timestamp;pressure;altitude;pressure_sealevel;temperature;humidity
59654;BME280;66556;52.008;5.432;2023-05-23T00:02:35;101861.0;;;37.29;21.45
59654;BME280;66556;52.008;5.432;2023-05-23T00:04:11;101862.0;;;37.39;21.61
59654;BME280;66556;52.008;5.432;2023-05-23T00:05:48;101858.0;;;37.17;21.74
59654;BME280;66556;52.008;5.432;2023-05-23T00:09:00;101861.0;;;37.17;21.86
59654;BME280;66556;52.008;5.432;2023-05-23T00:10:37;101863.0;;;37.22;21.78
59654;BME280;66556;52.008;5.432;2023-05-23T00:12:13;101870.0;;;36.44;22.68
59654;BME280;66556;52.008;5.432;2023-05-23T00:15:26;101864.0;;;37.07;21.93
59654;BME280;66556;52.008;5.432;2023-05-23T00:17:02;101872.0;;;37.04;21.95
59654;BME280;66556;52.008;5.432;2023-05-23T00:18:40;101877.0;;;36.64;22.45
59654;BME280;66556;52.008;5.432;2023-05-23T00:20:16;101877.0;;;36.94;22.33
59654;BME280;66556;52.008;5.432;2023-05-23T00:23:30;101881.0;;;36.82;22.18
59654;BME280;66556;52.008;5.432;2023-05-23T00:25:07;101886.0;;;36.35;22.71
59654;BME280;66556;52.008;5.432;2023-05-23T00:26:43;101880.0;;;36.64;22.62
59654;BME280;66556;52.008;5.432;2023-05-23T00:29:55;101880.0;;;36.79;22.32
59654;BME280;66556;52.008;5.432;2023-05-23T00:31:32;101881.0;;;36.49;22.87
59654;BME280;66556;52.008;5.432;2023-05-23T00:33:08;101878.0;;;36.78;22.47
59654;BME280;66556;52.008;5.432;2023-05-23T00:36:20;101880.0;;;36.64;22.46
59654;BME280;66556;52.008;5.432;2023-05-23T00:37:56;101878.0;;;36.86;22.25
59654;BME280;66556;52.008;5.432;2023-05-23T00:39:33;101878.0;;;37.14;21.9
59654;BME280;66556;52.008;5.432;2023-05-23T00:41:09;101883.0;;;36.85;22.32
59654;BME280;66556;52.008;5.432;2023-05-23T00:44:22;101887.0;;;36.83;22.17
59654;BME280;66556;52.008;5.432;2023-05-23T00:45:59;101892.0;;;36.61;22.42
59654;BME280;66556;52.008;5.432;2023-05-23T00:47:35;101892.0;;;36.53;22.48
59654;BME280;66556;52.008;5.432;2023-05-23T00:50:49;101894.0;;;36.86;22.21
59654;BME280;66556;52.008;5.432;2023-05-23T00:52:25;101900.0;;;36.31;22.66
59654;BME280;66556;52.008;5.432;2023-05-23T00:54:03;101900.0;;;36.56;22.43
59654;BME280;66556;52.008;5.432;2023-05-23T00:57:16;101896.0;;;35.87;23.1
59654;BME280;66556;52.008;5.432;2023-05-23T00:58:52;101907.0;;;35.69;23.24
59654;BME280;66556;52.008;5.432;2023-05-23T01:00:29;101909.0;;;36.06;22.89
59654;BME280;66556;52.008;5.432;2023-05-23T01:02:05;101905.0;;;35.86;22.96
59654;BME280;66556;52.008;5.432;2023-05-23T01:05:18;101906.0;;;36.76;21.99
59654;BME280;66556;52.008;5.432;2023-05-23T01:06:56;101902.0;;;36.0;22.7
59654;BME280;66556;52.008;5.432;2023-05-23T01:08:32;101912.0;;;36.39;22.22
59654;BME280;66556;52.008;5.432;2023-05-23T01:11:52;101906.0;;;36.57;22.2
59654;BME280;66556;52.008;5.432;2023-05-23T01:13:40;101915.0;;;36.62;22.1
59654;BME280;66556;52.008;5.432;2023-05-23T01:15:20;101911.0;;;36.72;22.01
59654;BME280;66556;52.008;5.432;2023-05-23T01:17:02;101908.0;;;36.6;22.12
59654;BME280;66556;52.008;5.432;2023-05-23T01:20:30;101905.0;;;36.31;22.41
59654;BME280;66556;52.008;5.432;2023-05-23T01:22:11;101902.0;;;36.51;22.21
59654;BME280;66556;52.008;5.432;2023-05-23T01:24:21;101900.0;;;36.71;22.06
59654;BME280;66556;52.008;5.432;2023-05-23T01:26:31;101900.0;;;36.6;22.3
59654;BME280;66556;52.008;5.432;2023-05-23T01:28:16;101906.0;;;36.56;22.26
59654;BME280;66556;52.008;5.432;2023-05-23T01:29:55;101898.0;;;36.44;22.54
59654;BME280;66556;52.008;5.432;2023-05-23T01:31:35;101895.0;;;36.79;22.04
59654;BME280;66556;52.008;5.432;2023-05-23T01:34:52;101895.0;;;36.68;22.08
59654;BME280;66556;52.008;5.432;2023-05-23T01:36:28;101897.0;;;36.68;22.11
59654;BME280;66556;52.008;5.432;2023-05-23T01:38:04;101897.0;;;36.71;22.15
59654;BME280;66556;52.008;5.432;2023-05-23T01:41:16;101898.0;;;37.14;21.63
59654;BME280;66556;52.008;5.432;2023-05-23T01:42:54;101901.0;;;36.44;22.38
59654;BME280;66556;52.008;5.432;2023-05-23T01:44:31;101902.0;;;36.47;22.44
59654;BME280;66556;52.008;5.432;2023-05-23T01:46:09;101900.0;;;36.6;22.2
59654;BME280;66556;52.008;5.432;2023-05-23T01:49:26;101899.0;;;36.71;22.19
59654;BME280;66556;52.008;5.432;2023-05-23T01:51:03;101901.0;;;36.49;22.34
59654;BME280;66556;52.008;5.432;2023-05-23T01:52:40;101900.0;;;36.49;22.62
59654;BME280;66556;52.008;5.432;2023-05-23T01:55:53;101897.0;;;36.69;22.15
59654;BME280;66556;52.008;5.432;2023-05-23T01:57:32;101897.0;;;36.78;22.0
59654;BME280;66556;52.008;5.432;2023-05-23T01:59:08;101901.0;;;36.67;22.11
59654;BME280;66556;52.008;5.432;2023-05-23T02:00:45;101908.0;;;36.71;22.15
59654;BME280;66556;52.008;5.432;2023-05-23T02:03:57;101906.0;;;36.79;21.87
59654;BME280;66556;52.008;5.432;2023-05-23T02:05:33;101914.0;;;36.65;22.22
59654;BME280;66556;52.008;5.432;2023-05-23T02:07:09;101914.0;;;36.67;22.1
59654;BME280;66556;52.008;5.432;2023-05-23T02:10:22;101915.0;;;36.58;22.34
59654;BME280;66556;52.008;5.432;2023-05-23T02:11:58;101913.0;;;36.42;22.38
59654;BME280;66556;52.008;5.432;2023-05-23T02:13:34;101912.0;;;36.74;22.06
59654;BME280;66556;52.008;5.432;2023-05-23T02:16:46;101925.0;;;36.26;22.47
59654;BME280;66556;52.008;5.432;2023-05-23T02:18:23;101916.0;;;35.96;22.95
59654;BME280;66556;52.008;5.432;2023-05-23T02:19:59;101924.0;;;36.64;22.21
59654;BME280;66556;52.008;5.432;2023-05-23T02:21:35;101925.0;;;36.14;22.88
59654;BME280;66556;52.008;5.432;2023-05-23T02:24:48;101924.0;;;36.07;22.76
59654;BME280;66556;52.008;5.432;2023-05-23T02:26:24;101928.0;;;36.67;22.14
59654;BME280;66556;52.008;5.432;2023-05-23T02:28:01;101931.0;;;36.68;22.14
59654;BME280;66556;52.008;5.432;2023-05-23T02:31:13;101930.0;;;36.74;22.02
59654;BME280;66556;52.008;5.432;2023-05-23T02:32:49;101928.0;;;36.1;22.67
59654;BME280;66556;52.008;5.432;2023-05-23T02:34:25;101927.0;;;36.08;22.61
59654;BME280;66556;52.008;5.432;2023-05-23T02:37:38;101938.0;;;36.12;22.57
59654;BME280;66556;52.008;5.432;2023-05-23T02:39:14;101932.0;;;35.99;22.77
59654;BME280;66556;52.008;5.432;2023-05-23T02:40:50;101937.0;;;35.74;22.82
59654;BME280;66556;52.008;5.432;2023-05-23T02:44:02;101937.0;;;35.89;22.8
59654;BME280;66556;52.008;5.432;2023-05-23T02:45:38;101940.0;;;36.19;22.51
59654;BME280;66556;52.008;5.432;2023-05-23T02:47:15;101944.0;;;36.4;22.22
59654;BME280;66556;52.008;5.432;2023-05-23T02:52:03;101949.0;;;35.33;23.38
59654;BME280;66556;52.008;5.432;2023-05-23T02:53:39;101951.0;;;34.24;24.61
59654;BME280;66556;52.008;5.432;2023-05-23T02:55:15;101952.0;;;35.74;23.05
59654;BME280;66556;52.008;5.432;2023-05-23T02:58:28;101949.0;;;35.75;22.93
59654;BME280;66556;52.008;5.432;2023-05-23T03:00:05;101949.0;;;36.24;22.46
59654;BME280;66556;52.008;5.432;2023-05-23T03:01:41;101951.0;;;35.96;22.87
59654;BME280;66556;52.008;5.432;2023-05-23T03:04:54;101948.0;;;35.53;23.12
59654;BME280;66556;52.008;5.432;2023-05-23T03:06:30;101951.0;;;35.21;23.5
59654;BME280;66556;52.008;5.432;2023-05-23T03:08:06;101945.0;;;36.21;22.31
59654;BME280;66556;52.008;5.432;2023-05-23T03:09:42;101944.0;;;35.72;22.83
59654;BME280;66556;52.008;5.432;2023-05-23T03:12:54;101944.0;;;35.68;22.93
59654;BME280;66556;52.008;5.432;2023-05-23T03:14:31;101943.0;;;35.85;22.82
59654;BME280;66556;52.008;5.432;2023-05-23T03:16:07;101946.0;;;35.1;23.49
59654;BME280;66556;52.008;5.432;2023-05-23T03:19:19;101941.0;;;35.65;22.95
59654;BME280;66556;52.008;5.432;2023-05-23T03:20:55;101935.0;;;36.17;22.36
59654;BME280;66556;52.008;5.432;2023-05-23T03:22:31;101941.0;;;36.68;21.84
59654;BME280;66556;52.008;5.432;2023-05-23T03:25:44;101939.0;;;35.4;23.15
59654;BME280;66556;52.008;5.432;2023-05-23T03:27:20;101938.0;;;36.03;22.45
59654;BME280;66556;52.008;5.432;2023-05-23T03:28:56;101941.0;;;36.64;21.82
59654;BME280;66556;52.008;5.432;2023-05-23T03:32:09;101943.0;;;36.26;22.25
59654;BME280;66556;52.008;5.432;2023-05-23T03:33:45;101942.0;;;36.08;22.39
59654;BME280;66556;52.008;5.432;2023-05-23T03:35:21;101948.0;;;35.9;22.62
59654;BME280;66556;52.008;5.432;2023-05-23T03:36:57;101943.0;;;36.0;22.51
59654;BME280;66556;52.008;5.432;2023-05-23T03:40:10;101953.0;;;36.4;21.91
59654;BME280;66556;52.008;5.432;2023-05-23T03:41:46;101952.0;;;36.85;21.43
59654;BME280;66556;52.008;5.432;2023-05-23T03:43:22;101951.0;;;36.47;21.87
59654;BME280;66556;52.008;5.432;2023-05-23T03:46:34;101961.0;;;36.68;21.79
59654;BME280;66556;52.008;5.432;2023-05-23T03:48:10;101959.0;;;36.43;21.91
59654;BME280;66556;52.008;5.432;2023-05-23T03:49:47;101957.0;;;36.49;21.71
59654;BME280;66556;52.008;5.432;2023-05-23T03:52:59;101961.0;;;36.04;22.07
59654;BME280;66556;52.008;5.432;2023-05-23T03:54:35;101958.0;;;35.78;22.35
59654;BME280;66556;52.008;5.432;2023-05-23T03:56:11;101965.0;;;36.35;21.83
59654;BME280;66556;52.008;5.432;2023-05-23T03:57:48;101969.0;;;36.17;22.03
59654;BME280;66556;52.008;5.432;2023-05-23T04:01:00;101971.0;;;35.79;22.32
59654;BME280;66556;52.008;5.432;2023-05-23T04:02:36;101980.0;;;35.71;22.25
59654;BME280;66556;52.008;5.432;2023-05-23T04:04:12;101981.0;;;35.57;22.43
59654;BME280;66556;52.008;5.432;2023-05-23T04:07:25;101989.0;;;35.21;22.98
59654;BME280;66556;52.008;5.432;2023-05-23T04:09:01;101986.0;;;35.61;22.57
59654;BME280;66556;52.008;5.432;2023-05-23T04:10:37;101991.0;;;35.44;22.72
59654;BME280;66556;52.008;5.432;2023-05-23T04:13:49;101993.0;;;35.64;22.5
59654;BME280;66556;52.008;5.432;2023-05-23T04:15:26;101993.0;;;35.37;22.73
59654;BME280;66556;52.008;5.432;2023-05-23T04:17:02;101988.0;;;35.57;22.49
59654;BME280;66556;52.008;5.432;2023-05-23T04:20:14;101992.0;;;36.14;21.87
59654;BME280;66556;52.008;5.432;2023-05-23T04:21:50;101996.0;;;36.18;21.87
59654;BME280;66556;52.008;5.432;2023-05-23T04:23:26;101994.0;;;36.1;21.76
59654;BME280;66556;52.008;5.432;2023-05-23T04:25:04;102001.0;;;35.74;22.18
59654;BME280;66556;52.008;5.432;2023-05-23T04:28:17;102001.0;;;34.86;23.2
59654;BME280;66556;52.008;5.432;2023-05-23T04:29:53;102003.0;;;35.39;22.64
59654;BME280;66556;52.008;5.432;2023-05-23T04:31:29;102005.0;;;34.49;23.65
59654;BME280;66556;52.008;5.432;2023-05-23T04:34:42;102006.0;;;34.49;23.48
59654;BME280;66556;52.008;5.432;2023-05-23T04:36:18;102013.0;;;34.68;23.32
59654;BME280;66556;52.008;5.432;2023-05-23T04:37:54;102007.0;;;33.89;24.19
59654;BME280;66556;52.008;5.432;2023-05-23T04:41:07;102015.0;;;34.87;23.27
59654;BME280;66556;52.008;5.432;2023-05-23T04:42:43;102013.0;;;35.42;22.42
59654;BME280;66556;52.008;5.432;2023-05-23T04:44:19;102019.0;;;35.01;22.9
59654;BME280;66556;52.008;5.432;2023-05-23T04:45:55;102020.0;;;35.42;22.47
59654;BME280;66556;52.008;5.432;2023-05-23T04:49:08;102019.0;;;34.83;23.04
59654;BME280;66556;52.008;5.432;2023-05-23T04:50:44;102022.0;;;34.47;23.36
59654;BME280;66556;52.008;5.432;2023-05-23T04:52:21;102033.0;;;33.51;24.31
59654;BME280;66556;52.008;5.432;2023-05-23T04:55:33;102032.0;;;34.6;23.11
59654;BME280;66556;52.008;5.432;2023-05-23T04:57:09;102033.0;;;34.81;22.74
59654;BME280;66556;52.008;5.432;2023-05-23T04:58:45;102031.0;;;35.47;22.09
59654;BME280;66556;52.008;5.432;2023-05-23T05:01:58;102036.0;;;35.19;22.4
59654;BME280;66556;52.008;5.432;2023-05-23T05:03:34;102047.0;;;34.83;22.91
59654;BME280;66556;52.008;5.432;2023-05-23T05:05:10;102043.0;;;34.99;22.42
59654;BME280;66556;52.008;5.432;2023-05-23T05:08:23;102039.0;;;34.6;22.84
59654;BME280;66556;52.008;5.432;2023-05-23T05:09:59;102047.0;;;34.42;23.15
59654;BME280;66556;52.008;5.432;2023-05-23T05:11:35;102050.0;;;34.37;23.12
59654;BME280;66556;52.008;5.432;2023-05-23T05:13:11;102056.0;;;34.43;22.83
59654;BME280;66556;52.008;5.432;2023-05-23T05:16:24;102067.0;;;33.87;23.63
59654;BME280;66556;52.008;5.432;2023-05-23T05:18:00;102069.0;;;33.89;23.39
59654;BME280;66556;52.008;5.432;2023-05-23T05:19:36;102070.0;;;34.24;23.19
59654;BME280;66556;52.008;5.432;2023-05-23T05:22:54;102080.0;;;34.42;22.81
59654;BME280;66556;52.008;5.432;2023-05-23T05:24:30;102077.0;;;34.44;22.82
59654;BME280;66556;52.008;5.432;2023-05-23T05:26:07;102086.0;;;34.14;23.23
59654;BME280;66556;52.008;5.432;2023-05-23T05:29:19;102094.0;;;34.22;22.96
59654;BME280;66556;52.008;5.432;2023-05-23T05:30:55;102093.0;;;32.8;24.18
59654;BME280;66556;52.008;5.432;2023-05-23T05:32:31;102096.0;;;33.72;23.22
59654;BME280;66556;52.008;5.432;2023-05-23T05:34:07;102092.0;;;33.53;23.13
59654;BME280;66556;52.008;5.432;2023-05-23T05:37:20;102097.0;;;34.14;22.56
59654;BME280;66556;52.008;5.432;2023-05-23T05:38:56;102094.0;;;34.17;22.53
59654;BME280;66556;52.008;5.432;2023-05-23T05:40:32;102101.0;;;33.64;23.0
59654;BME280;66556;52.008;5.432;2023-05-23T05:43:46;102105.0;;;33.85;22.62
59654;BME280;66556;52.008;5.432;2023-05-23T05:45:22;102097.0;;;34.21;21.97
59654;BME280;66556;52.008;5.432;2023-05-23T05:46:58;102105.0;;;33.96;22.23
59654;BME280;66556;52.008;5.432;2023-05-23T05:50:11;102105.0;;;34.71;21.42
59654;BME280;66556;52.008;5.432;2023-05-23T05:51:47;102108.0;;;35.07;20.71
59654;BME280;66556;52.008;5.432;2023-05-23T05:53:23;102108.0;;;34.42;21.3
59654;BME280;66556;52.008;5.432;2023-05-23T05:54:59;102115.0;;;34.04;21.26
59654;BME280;66556;52.008;5.432;2023-05-23T05:59:47;102119.0;;;34.39;20.92
59654;BME280;66556;52.008;5.432;2023-05-23T06:01:23;102122.0;;;34.61;20.82
59654;BME280;66556;52.008;5.432;2023-05-23T06:04:36;102116.0;;;34.56;20.65
59654;BME280;66556;52.008;5.432;2023-05-23T06:06:12;102120.0;;;34.79;20.43
59654;BME280;66556;52.008;5.432;2023-05-23T06:07:48;102126.0;;;34.78;20.45
59654;BME280;66556;52.008;5.432;2023-05-23T06:11:01;102127.0;;;35.42;19.77
59654;BME280;66556;52.008;5.432;2023-05-23T06:12:37;102128.0;;;35.24;19.97
59654;BME280;66556;52.008;5.432;2023-05-23T06:14:13;102132.0;;;35.21;20.09
59654;BME280;66556;52.008;5.432;2023-05-23T06:17:26;102140.0;;;34.57;20.18
59654;BME280;66556;52.008;5.432;2023-05-23T06:19:03;102137.0;;;34.75;20.05
59654;BME280;66556;52.008;5.432;2023-05-23T06:20:39;102138.0;;;34.51;20.18
59654;BME280;66556;52.008;5.432;2023-05-23T06:22:15;102141.0;;;34.42;20.45
59654;BME280;66556;52.008;5.432;2023-05-23T06:25:27;102134.0;;;34.31;20.55
59654;BME280;66556;52.008;5.432;2023-05-23T06:27:04;102138.0;;;34.47;20.45
59654;BME280;66556;52.008;5.432;2023-05-23T06:28:40;102144.0;;;34.32;20.34
59654;BME280;66556;52.008;5.432;2023-05-23T06:31:52;102139.0;;;34.67;20.11
59654;BME280;66556;52.008;5.432;2023-05-23T06:33:29;102135.0;;;34.39;20.34
59654;BME280;66556;52.008;5.432;2023-05-23T06:35:06;102139.0;;;34.79;20.06
59654;BME280;66556;52.008;5.432;2023-05-23T06:38:19;102136.0;;;34.74;20.0
59654;BME280;66556;52.008;5.432;2023-05-23T06:39:55;102142.0;;;34.64;20.16
59654;BME280;66556;52.008;5.432;2023-05-23T06:41:31;102149.0;;;34.42;20.39
59654;BME280;66556;52.008;5.432;2023-05-23T06:43:07;102151.0;;;34.85;19.93
59654;BME280;66556;52.008;5.432;2023-05-23T06:46:20;102146.0;;;34.69;20.04
59654;BME280;66556;52.008;5.432;2023-05-23T06:47:56;102150.0;;;34.53;20.18
59654;BME280;66556;52.008;5.432;2023-05-23T06:49:32;102155.0;;;34.39;20.43
59654;BME280;66556;52.008;5.432;2023-05-23T06:52:45;102153.0;;;33.71;20.86
59654;BME280;66556;52.008;5.432;2023-05-23T06:54:21;102146.0;;;34.49;20.2
59654;BME280;66556;52.008;5.432;2023-05-23T06:55:57;102157.0;;;33.89;20.83
59654;BME280;66556;52.008;5.432;2023-05-23T06:59:09;102150.0;;;34.81;20.16
59654;BME280;66556;52.008;5.432;2023-05-23T07:00:46;102153.0;;;34.24;20.65
59654;BME280;66556;52.008;5.432;2023-05-23T07:02:22;102152.0;;;34.85;20.22
59654;BME280;66556;52.008;5.432;2023-05-23T07:03:58;102153.0;;;34.67;20.48
59654;BME280;66556;52.008;5.432;2023-05-23T07:07:09;102155.0;;;35.14;19.89
59654;BME280;66556;52.008;5.432;2023-05-23T07:08:45;102163.0;;;35.0;20.02
59654;BME280;66556;52.008;5.432;2023-05-23T07:10:22;102159.0;;;34.78;20.5
59654;BME280;66556;52.008;5.432;2023-05-23T07:13:34;102168.0;;;34.47;20.77
59654;BME280;66556;52.008;5.432;2023-05-23T07:15:11;102170.0;;;33.55;21.94
59654;BME280;66556;52.008;5.432;2023-05-23T07:16:46;102169.0;;;33.42;22.1
59654;BME280;66556;52.008;5.432;2023-05-23T07:20:00;102171.0;;;33.64;22.01
59654;BME280;66556;52.008;5.432;2023-05-23T07:21:36;102174.0;;;34.29;21.33
59654;BME280;66556;52.008;5.432;2023-05-23T07:23:12;102178.0;;;33.72;21.9
59654;BME280;66556;52.008;5.432;2023-05-23T07:26:25;102180.0;;;34.05;21.62
59654;BME280;66556;52.008;5.432;2023-05-23T07:28:01;102184.0;;;33.62;22.19
59654;BME280;66556;52.008;5.432;2023-05-23T07:29:37;102176.0;;;34.57;21.45
59654;BME280;66556;52.008;5.432;2023-05-23T07:31:13;102182.0;;;34.67;21.43
59654;BME280;66556;52.008;5.432;2023-05-23T07:34:26;102190.0;;;33.6;22.29
59654;BME280;66556;52.008;5.432;2023-05-23T07:36:02;102192.0;;;34.47;21.81
59654;BME280;66556;52.008;5.432;2023-05-23T07:37:38;102198.0;;;34.05;22.24
59654;BME280;66556;52.008;5.432;2023-05-23T07:40:50;102195.0;;;33.89;22.42
59654;BME280;66556;52.008;5.432;2023-05-23T07:42:27;102190.0;;;34.19;22.06
59654;BME280;66556;52.008;5.432;2023-05-23T07:44:03;102200.0;;;33.21;22.65
59654;BME280;66556;52.008;5.432;2023-05-23T07:47:15;102196.0;;;34.4;21.59
59654;BME280;66556;52.008;5.432;2023-05-23T07:48:51;102193.0;;;35.56;20.6
59654;BME280;66556;52.008;5.432;2023-05-23T07:50:27;102195.0;;;34.58;20.57
59654;BME280;66556;52.008;5.432;2023-05-23T07:53:40;102193.0;;;34.82;20.0
59654;BME280;66556;52.008;5.432;2023-05-23T07:55:16;102194.0;;;35.39;19.63
59654;BME280;66556;52.008;5.432;2023-05-23T07:56:52;102191.0;;;35.19;19.38
59654;BME280;66556;52.008;5.432;2023-05-23T07:58:29;102191.0;;;35.92;18.63
59654;BME280;66556;52.008;5.432;2023-05-23T08:01:42;102193.0;;;34.96;19.04
59654;BME280;66556;52.008;5.432;2023-05-23T08:03:18;102196.0;;;35.0;18.96
59654;BME280;66556;52.008;5.432;2023-05-23T08:04:54;102194.0;;;35.54;18.75
59654;BME280;66556;52.008;5.432;2023-05-23T08:08:07;102197.0;;;34.74;18.93
59654;BME280;66556;52.008;5.432;2023-05-23T08:09:43;102206.0;;;34.35;18.97
59654;BME280;66556;52.008;5.432;2023-05-23T08:11:19;102209.0;;;34.85;18.98
59654;BME280;66556;52.008;5.432;2023-05-23T08:14:32;102209.0;;;34.69;18.73
59654;BME280;66556;52.008;5.432;2023-05-23T08:16:07;102207.0;;;34.94;18.55
59654;BME280;66556;52.008;5.432;2023-05-23T08:17:44;102213.0;;;34.1;19.21
59654;BME280;66556;52.008;5.432;2023-05-23T08:19:20;102205.0;;;34.53;18.91
59654;BME280;66556;52.008;5.432;2023-05-23T08:22:32;102202.0;;;35.04;18.52
59654;BME280;66556;52.008;5.432;2023-05-23T08:24:08;102214.0;;;34.46;19.05
59654;BME280;66556;52.008;5.432;2023-05-23T08:25:45;102209.0;;;34.96;18.7
59654;BME280;66556;52.008;5.432;2023-05-23T08:28:57;102217.0;;;35.06;18.48
59654;BME280;66556;52.008;5.432;2023-05-23T08:30:33;102217.0;;;34.85;18.59
59654;BME280;66556;52.008;5.432;2023-05-23T08:32:09;102223.0;;;35.49;18.09
59654;BME280;66556;52.008;5.432;2023-05-23T08:36:58;102228.0;;;35.93;17.96
59654;BME280;66556;52.008;5.432;2023-05-23T08:38:34;102228.0;;;35.04;18.16
59654;BME280;66556;52.008;5.432;2023-05-23T08:43:29;102234.0;;;35.29;18.11
59654;BME280;66556;52.008;5.432;2023-05-23T08:45:06;102230.0;;;35.15;18.28
59654;BME280;66556;52.008;5.432;2023-05-23T08:46:44;102239.0;;;34.69;18.91
59654;BME280;66556;52.008;5.432;2023-05-23T08:50:00;102249.0;;;33.46;19.59
59654;BME280;66556;52.008;5.432;2023-05-23T08:51:37;102243.0;;;34.28;19.09
59654;BME280;66556;52.008;5.432;2023-05-23T08:53:17;102247.0;;;35.53;18.45
59654;BME280;66556;52.008;5.432;2023-05-23T08:54:59;102243.0;;;35.28;18.22
59654;BME280;66556;52.008;5.432;2023-05-23T08:58:13;102248.0;;;34.85;18.5
59654;BME280;66556;52.008;5.432;2023-05-23T08:59:50;102245.0;;;35.31;18.14
59654;BME280;66556;52.008;5.432;2023-05-23T09:01:27;102246.0;;;35.35;18.16
59654;BME280;66556;52.008;5.432;2023-05-23T09:04:41;102248.0;;;35.5;17.93
59654;BME280;66556;52.008;5.432;2023-05-23T09:06:19;102245.0;;;34.32;18.64
59654;BME280;66556;52.008;5.432;2023-05-23T09:07:55;102255.0;;;34.79;18.34
59654;BME280;66556;52.008;5.432;2023-05-23T09:09:32;102253.0;;;34.85;18.47
59654;BME280;66556;52.008;5.432;2023-05-23T09:12:44;102255.0;;;35.67;17.52
59654;BME280;66556;52.008;5.432;2023-05-23T09:14:20;102255.0;;;35.93;17.71
59654;BME280;66556;52.008;5.432;2023-05-23T09:16:00;102250.0;;;35.22;17.96
59654;BME280;66556;52.008;5.432;2023-05-23T09:19:14;102255.0;;;36.51;17.61
59654;BME280;66556;52.008;5.432;2023-05-23T09:20:50;102257.0;;;36.96;17.27
59654;BME280;66556;52.008;5.432;2023-05-23T09:22:26;102263.0;;;36.47;16.91
59654;BME280;66556;52.008;5.432;2023-05-23T09:25:45;102260.0;;;36.06;17.39
59654;BME280;66556;52.008;5.432;2023-05-23T09:27:22;102259.0;;;35.42;17.55
59654;BME280;66556;52.008;5.432;2023-05-23T09:28:59;102260.0;;;35.6;17.86
59654;BME280;66556;52.008;5.432;2023-05-23T09:30:37;102263.0;;;36.57;17.04
59654;BME280;66556;52.008;5.432;2023-05-23T09:33:52;102271.0;;;36.99;16.93
59654;BME280;66556;52.008;5.432;2023-05-23T09:35:28;102260.0;;;37.68;17.29
59654;BME280;66556;52.008;5.432;2023-05-23T09:37:05;102263.0;;;36.29;17.02
59654;BME280;66556;52.008;5.432;2023-05-23T09:40:20;102257.0;;;37.36;16.71
59654;BME280;66556;52.008;5.432;2023-05-23T09:41:57;102253.0;;;39.1;16.04
59654;BME280;66556;52.008;5.432;2023-05-23T09:43:33;102256.0;;;36.85;15.6
59654;BME280;66556;52.008;5.432;2023-05-23T09:45:10;102260.0;;;38.39;15.09
59654;BME280;66556;52.008;5.432;2023-05-23T09:48:27;102260.0;;;37.56;16.09
59654;BME280;66556;52.008;5.432;2023-05-23T09:50:05;102270.0;;;37.83;15.96
59654;BME280;66556;52.008;5.432;2023-05-23T09:51:41;102264.0;;;38.89;15.8
59654;BME280;66556;52.008;5.432;2023-05-23T09:54:54;102261.0;;;37.39;15.66
59654;BME280;66556;52.008;5.432;2023-05-23T09:56:30;102264.0;;;37.07;16.3
59654;BME280;66556;52.008;5.432;2023-05-23T09:58:07;102271.0;;;37.07;16.14
59654;BME280;66556;52.008;5.432;2023-05-23T09:59:50;102277.0;;;36.96;16.22
59654;BME280;66556;52.008;5.432;2023-05-23T10:03:09;102280.0;;;36.26;16.95
59654;BME280;66556;52.008;5.432;2023-05-23T10:04:47;102263.0;;;36.47;16.11
59654;BME280;66556;52.008;5.432;2023-05-23T10:06:26;102270.0;;;37.47;15.75
59654;BME280;66556;52.008;5.432;2023-05-23T10:08:07;102274.0;;;36.46;15.74
59654;BME280;66556;52.008;5.432;2023-05-23T10:12:40;102272.0;;;37.82;15.45
59654;BME280;66556;52.008;5.432;2023-05-23T10:15:07;102273.0;;;38.87;15.23
59654;BME280;66556;52.008;5.432;2023-05-23T10:16:53;102275.0;;;38.51;15.19
59654;BME280;66556;52.008;5.432;2023-05-23T10:18:39;102280.0;;;38.74;14.8
59654;BME280;66556;52.008;5.432;2023-05-23T10:22:01;102275.0;;;38.49;14.1
59654;BME280;66556;52.008;5.432;2023-05-23T10:23:41;102286.0;;;38.96;14.29
59654;BME280;66556;52.008;5.432;2023-05-23T10:25:18;102290.0;;;38.78;14.68
59654;BME280;66556;52.008;5.432;2023-05-23T10:26:54;102293.0;;;38.42;14.95
59654;BME280;66556;52.008;5.432;2023-05-23T10:30:08;102284.0;;;37.86;14.74
59654;BME280;66556;52.008;5.432;2023-05-23T10:31:45;102289.0;;;38.39;14.93
59654;BME280;66556;52.008;5.432;2023-05-23T10:33:22;102286.0;;;38.33;14.53
59654;BME280;66556;52.008;5.432;2023-05-23T10:36:52;102289.0;;;38.07;14.45
59654;BME280;66556;52.008;5.432;2023-05-23T10:38:36;102287.0;;;37.24;14.86
59654;BME280;66556;52.008;5.432;2023-05-23T10:40:21;102285.0;;;39.07;14.26
59654;BME280;66556;52.008;5.432;2023-05-23T10:42:07;102283.0;;;39.17;14.2
59654;BME280;66556;52.008;5.432;2023-05-23T10:43:51;102294.0;;;38.68;14.59
59654;BME280;66556;52.008;5.432;2023-05-23T10:47:25;102291.0;;;38.36;15.42
59654;BME280;66556;52.008;5.432;2023-05-23T10:49:01;102294.0;;;38.4;15.09
59654;BME280;66556;52.008;5.432;2023-05-23T10:50:37;102293.0;;;38.29;15.25
59654;BME280;66556;52.008;5.432;2023-05-23T10:52:16;102303.0;;;37.87;15.55
59654;BME280;66556;52.008;5.432;2023-05-23T10:55:31;102305.0;;;38.46;15.28
59654;BME280;66556;52.008;5.432;2023-05-23T10:57:09;102297.0;;;38.28;15.28
59654;BME280;66556;52.008;5.432;2023-05-23T10:58:45;102311.0;;;38.37;14.78
59654;BME280;66556;52.008;5.432;2023-05-23T11:00:22;102299.0;;;37.6;14.89
59654;BME280;66556;52.008;5.432;2023-05-23T11:03:48;102296.0;;;36.87;15.5
59654;BME280;66556;52.008;5.432;2023-05-23T11:05:28;102296.0;;;37.64;14.87
59654;BME280;66556;52.008;5.432;2023-05-23T11:07:04;102296.0;;;38.51;15.06
59654;BME280;66556;52.008;5.432;2023-05-23T11:10:18;102302.0;;;38.94;14.38
59654;BME280;66556;52.008;5.432;2023-05-23T11:11:54;102302.0;;;36.93;14.84
59654;BME280;66556;52.008;5.432;2023-05-23T11:14:03;102298.0;;;38.21;14.61
59654;BME280;66556;52.008;5.432;2023-05-23T11:15:41;102303.0;;;37.24;15.15
59654;BME280;66556;52.008;5.432;2023-05-23T11:17:29;102305.0;;;37.96;15.08